sensor_id;sensor_type;location;lat;lon;timestamp;temperature;humidity
7174;DHT22;3628;48.654;8.932;2023-05-07T00:01:49;12.80;99.90
7174;DHT22;3628;48.654;8.932;2023-05-07T00:04:15;12.70;99.90
7174;DHT22;3628;48.654;8.932;2023-05-07T00:06:40;12.70;99.90
7174;DHT22;3628;48.654;8.932;2023-05-07T00:09:06;12.70;99.90
7174;DHT22;3628;48.654;8.932;2023-05-07T00:11:32;12.60;99.90
7174;DHT22;3628;48.654;8.932;2023-05-07T00:13:58;12.60;99.90
7174;DHT22;3628;48.654;8.932;2023-05-07T00:16:24;12.60;99.90
7174;DHT22;3628;48.654;8.932;2023-05-07T00:18:49;12.60;99.90
7174;DHT22;3628;48.654;8.932;2023-05-07T00:21:15;12.50;99.90
7174;DHT22;3628;48.654;8.932;2023-05-07T00:23:41;12.50;99.90
7174;DHT22;3628;48.654;8.932;2023-05-07T00:26:07;12.60;99.90
7174;DHT22;3628;48.654;8.932;2023-05-07T00:28:32;12.60;99.90
7174;DHT22;3628;48.654;8.932;2023-05-07T00:30:58;12.60;99.90
7174;DHT22;3628;48.654;8.932;2023-05-07T00:33:23;12.60;99.90
7174;DHT22;3628;48.654;8.932;2023-05-07T00:35:49;12.60;99.90
7174;DHT22;3628;48.654;8.932;2023-05-07T00:38:14;12.60;99.90
7174;DHT22;3628;48.654;8.932;2023-05-07T00:40:40;12.50;99.90
7174;DHT22;3628;48.654;8.932;2023-05-07T00:43:06;12.50;99.90
7174;DHT22;3628;48.654;8.932;2023-05-07T00:45:34;12.40;99.90
7174;DHT22;3628;48.654;8.932;2023-05-07T00:48:00;12.40;99.90
7174;DHT22;3628;48.654;8.932;2023-05-07T00:50:29;12.40;99.90
7174;DHT22;3628;48.654;8.932;2023-05-07T00:52:55;12.30;99.90
7174;DHT22;3628;48.654;8.932;2023-05-07T00:55:22;12.30;99.90
7174;DHT22;3628;48.654;8.932;2023-05-07T00:57:49;12.30;99.90
7174;DHT22;3628;48.654;8.932;2023-05-07T01:00:15;12.30;99.90
7174;DHT22;3628;48.654;8.932;2023-05-07T01:02:41;12.30;99.90
7174;DHT22;3628;48.654;8.932;2023-05-07T01:05:09;12.20;99.90
7174;DHT22;3628;48.654;8.932;2023-05-07T01:07:35;12.20;99.90
7174;DHT22;3628;48.654;8.932;2023-05-07T01:10:03;12.20;99.90
7174;DHT22;3628;48.654;8.932;2023-05-07T01:12:29;12.20;99.90
7174;DHT22;3628;48.654;8.932;2023-05-07T01:14:56;12.20;99.90
7174;DHT22;3628;48.654;8.932;2023-05-07T01:17:22;12.20;99.90
7174;DHT22;3628;48.654;8.932;2023-05-07T01:19:48;12.20;99.90
7174;DHT22;3628;48.654;8.932;2023-05-07T01:22:15;12.10;99.90
7174;DHT22;3628;48.654;8.932;2023-05-07T01:24:42;12.10;99.90
7174;DHT22;3628;48.654;8.932;2023-05-07T01:27:07;12.10;99.90
7174;DHT22;3628;48.654;8.932;2023-05-07T01:29:33;12.10;99.90
7174;DHT22;3628;48.654;8.932;2023-05-07T01:32:00;12.10;99.90
7174;DHT22;3628;48.654;8.932;2023-05-07T01:34:28;12.10;99.90
7174;DHT22;3628;48.654;8.932;2023-05-07T01:36:56;12.10;99.90
7174;DHT22;3628;48.654;8.932;2023-05-07T01:39:27;12.10;99.90
7174;DHT22;3628;48.654;8.932;2023-05-07T01:41:55;12.10;99.90
7174;DHT22;3628;48.654;8.932;2023-05-07T01:44:22;12.10;99.90
7174;DHT22;3628;48.654;8.932;2023-05-07T01:46:48;12.10;99.90
7174;DHT22;3628;48.654;8.932;2023-05-07T01:49:14;12.10;99.90
7174;DHT22;3628;48.654;8.932;2023-05-07T01:51:40;12.10;99.90
7174;DHT22;3628;48.654;8.932;2023-05-07T01:54:06;12.10;99.90
7174;DHT22;3628;48.654;8.932;2023-05-07T01:56:33;12.10;99.90
7174;DHT22;3628;48.654;8.932;2023-05-07T01:58:59;12.00;99.90
7174;DHT22;3628;48.654;8.932;2023-05-07T02:01:24;12.00;99.90
7174;DHT22;3628;48.654;8.932;2023-05-07T02:03:50;12.00;99.90
7174;DHT22;3628;48.654;8.932;2023-05-07T02:06:16;11.90;99.90
7174;DHT22;3628;48.654;8.932;2023-05-07T02:08:41;11.90;99.90
7174;DHT22;3628;48.654;8.932;2023-05-07T02:11:07;11.90;99.90
7174;DHT22;3628;48.654;8.932;2023-05-07T02:13:33;11.90;99.90
7174;DHT22;3628;48.654;8.932;2023-05-07T02:16:02;11.80;99.90
7174;DHT22;3628;48.654;8.932;2023-05-07T02:18:28;11.90;99.90
7174;DHT22;3628;48.654;8.932;2023-05-07T02:20:54;11.80;99.90
7174;DHT22;3628;48.654;8.932;2023-05-07T02:23:19;11.80;99.90
7174;DHT22;3628;48.654;8.932;2023-05-07T02:25:45;11.80;99.90
7174;DHT22;3628;48.654;8.932;2023-05-07T02:28:11;11.80;99.90
7174;DHT22;3628;48.654;8.932;2023-05-07T02:30:38;11.70;99.90
7174;DHT22;3628;48.654;8.932;2023-05-07T02:33:04;11.70;99.90
7174;DHT22;3628;48.654;8.932;2023-05-07T02:35:29;11.70;99.90
7174;DHT22;3628;48.654;8.932;2023-05-07T02:37:55;11.70;99.90
7174;DHT22;3628;48.654;8.932;2023-05-07T02:40:21;11.60;99.90
7174;DHT22;3628;48.654;8.932;2023-05-07T02:42:46;11.60;99.90
7174;DHT22;3628;48.654;8.932;2023-05-07T02:45:12;11.50;99.90
7174;DHT22;3628;48.654;8.932;2023-05-07T02:47:38;11.50;99.90
7174;DHT22;3628;48.654;8.932;2023-05-07T02:50:04;11.40;99.90
7174;DHT22;3628;48.654;8.932;2023-05-07T02:52:29;11.40;99.90
7174;DHT22;3628;48.654;8.932;2023-05-07T02:54:55;11.30;99.90
7174;DHT22;3628;48.654;8.932;2023-05-07T02:57:20;11.20;99.90
7174;DHT22;3628;48.654;8.932;2023-05-07T02:59:46;11.20;99.90
7174;DHT22;3628;48.654;8.932;2023-05-07T03:02:11;11.10;99.90
7174;DHT22;3628;48.654;8.932;2023-05-07T03:04:39;11.00;99.90
7174;DHT22;3628;48.654;8.932;2023-05-07T03:07:04;11.00;99.90
7174;DHT22;3628;48.654;8.932;2023-05-07T03:09:30;10.90;99.90
7174;DHT22;3628;48.654;8.932;2023-05-07T03:11:56;10.90;99.90
7174;DHT22;3628;48.654;8.932;2023-05-07T03:14:22;10.80;99.90
7174;DHT22;3628;48.654;8.932;2023-05-07T03:16:48;10.80;99.90
7174;DHT22;3628;48.654;8.932;2023-05-07T03:19:14;10.80;99.90
7174;DHT22;3628;48.654;8.932;2023-05-07T03:21:39;10.70;99.90
7174;DHT22;3628;48.654;8.932;2023-05-07T03:24:05;10.70;99.90
7174;DHT22;3628;48.654;8.932;2023-05-07T03:26:31;10.70;99.90
7174;DHT22;3628;48.654;8.932;2023-05-07T03:28:56;10.60;99.90
7174;DHT22;3628;48.654;8.932;2023-05-07T03:31:22;10.60;99.90
7174;DHT22;3628;48.654;8.932;2023-05-07T03:33:55;10.60;99.90
7174;DHT22;3628;48.654;8.932;2023-05-07T03:36:21;10.60;99.90
7174;DHT22;3628;48.654;8.932;2023-05-07T03:38:48;10.60;99.90
7174;DHT22;3628;48.654;8.932;2023-05-07T03:41:14;10.50;99.90
7174;DHT22;3628;48.654;8.932;2023-05-07T03:43:39;10.50;99.90
7174;DHT22;3628;48.654;8.932;2023-05-07T03:46:05;10.40;99.90
7174;DHT22;3628;48.654;8.932;2023-05-07T03:48:31;10.40;99.90
7174;DHT22;3628;48.654;8.932;2023-05-07T03:50:57;10.40;99.90
7174;DHT22;3628;48.654;8.932;2023-05-07T03:53:23;10.40;99.90
7174;DHT22;3628;48.654;8.932;2023-05-07T03:55:49;10.40;99.90
7174;DHT22;3628;48.654;8.932;2023-05-07T03:58:15;10.40;99.90
7174;DHT22;3628;48.654;8.932;2023-05-07T04:00:41;10.40;99.90
7174;DHT22;3628;48.654;8.932;2023-05-07T04:03:07;10.40;99.90
7174;DHT22;3628;48.654;8.932;2023-05-07T04:05:32;10.30;99.90
7174;DHT22;3628;48.654;8.932;2023-05-07T04:07:58;10.30;99.90
7174;DHT22;3628;48.654;8.932;2023-05-07T04:10:24;10.30;99.90
7174;DHT22;3628;48.654;8.932;2023-05-07T04:12:50;10.30;99.90
7174;DHT22;3628;48.654;8.932;2023-05-07T04:15:16;10.30;99.90
7174;DHT22;3628;48.654;8.932;2023-05-07T04:17:41;10.30;99.90
7174;DHT22;3628;48.654;8.932;2023-05-07T04:20:09;10.30;99.90
7174;DHT22;3628;48.654;8.932;2023-05-07T04:22:35;10.30;99.90
7174;DHT22;3628;48.654;8.932;2023-05-07T04:25:01;10.30;99.90
7174;DHT22;3628;48.654;8.932;2023-05-07T04:27:27;10.40;99.90
7174;DHT22;3628;48.654;8.932;2023-05-07T04:29:53;10.50;99.90
7174;DHT22;3628;48.654;8.932;2023-05-07T04:32:21;10.50;99.90
7174;DHT22;3628;48.654;8.932;2023-05-07T04:34:47;10.50;99.90
7174;DHT22;3628;48.654;8.932;2023-05-07T04:37:12;10.50;99.90
7174;DHT22;3628;48.654;8.932;2023-05-07T04:39:38;10.50;99.90
7174;DHT22;3628;48.654;8.932;2023-05-07T04:42:03;10.50;99.90
7174;DHT22;3628;48.654;8.932;2023-05-07T04:44:29;10.60;99.90
7174;DHT22;3628;48.654;8.932;2023-05-07T04:46:56;10.60;99.90
7174;DHT22;3628;48.654;8.932;2023-05-07T04:49:22;10.60;99.90
7174;DHT22;3628;48.654;8.932;2023-05-07T04:51:47;10.70;99.90
7174;DHT22;3628;48.654;8.932;2023-05-07T04:54:13;10.80;99.90
7174;DHT22;3628;48.654;8.932;2023-05-07T04:56:38;10.80;99.90
7174;DHT22;3628;48.654;8.932;2023-05-07T04:59:04;10.90;99.90
7174;DHT22;3628;48.654;8.932;2023-05-07T05:01:31;11.00;99.90
7174;DHT22;3628;48.654;8.932;2023-05-07T05:03:56;11.00;99.90
7174;DHT22;3628;48.654;8.932;2023-05-07T05:06:22;11.00;99.90
7174;DHT22;3628;48.654;8.932;2023-05-07T05:08:47;11.00;99.90
7174;DHT22;3628;48.654;8.932;2023-05-07T05:11:13;11.20;99.90
7174;DHT22;3628;48.654;8.932;2023-05-07T05:13:38;11.30;99.90
7174;DHT22;3628;48.654;8.932;2023-05-07T05:16:04;11.50;99.90
7174;DHT22;3628;48.654;8.932;2023-05-07T05:18:31;11.60;99.90
7174;DHT22;3628;48.654;8.932;2023-05-07T05:20:56;11.80;99.90
7174;DHT22;3628;48.654;8.932;2023-05-07T05:23:22;11.90;99.90
7174;DHT22;3628;48.654;8.932;2023-05-07T05:25:47;12.10;99.90
7174;DHT22;3628;48.654;8.932;2023-05-07T05:28:13;12.20;99.90
7174;DHT22;3628;48.654;8.932;2023-05-07T05:30:39;12.30;99.90
7174;DHT22;3628;48.654;8.932;2023-05-07T05:33:04;12.50;99.90
7174;DHT22;3628;48.654;8.932;2023-05-07T05:35:30;12.60;99.90
7174;DHT22;3628;48.654;8.932;2023-05-07T05:37:56;12.70;99.90
7174;DHT22;3628;48.654;8.932;2023-05-07T05:40:21;12.90;99.90
7174;DHT22;3628;48.654;8.932;2023-05-07T05:42:47;13.10;99.90
7174;DHT22;3628;48.654;8.932;2023-05-07T05:45:12;13.30;99.90
7174;DHT22;3628;48.654;8.932;2023-05-07T05:47:38;13.50;99.90
7174;DHT22;3628;48.654;8.932;2023-05-07T05:50:05;13.70;99.90
7174;DHT22;3628;48.654;8.932;2023-05-07T05:52:31;13.90;99.90
7174;DHT22;3628;48.654;8.932;2023-05-07T05:54:57;14.10;99.90
7174;DHT22;3628;48.654;8.932;2023-05-07T05:57:22;14.30;99.90
7174;DHT22;3628;48.654;8.932;2023-05-07T05:59:48;14.60;99.90
7174;DHT22;3628;48.654;8.932;2023-05-07T06:02:14;14.70;99.90
7174;DHT22;3628;48.654;8.932;2023-05-07T06:04:39;14.90;99.90
7174;DHT22;3628;48.654;8.932;2023-05-07T06:07:05;15.00;99.90
7174;DHT22;3628;48.654;8.932;2023-05-07T06:09:31;15.10;99.90
7174;DHT22;3628;48.654;8.932;2023-05-07T06:11:56;15.40;99.90
7174;DHT22;3628;48.654;8.932;2023-05-07T06:14:22;15.60;99.90
7174;DHT22;3628;48.654;8.932;2023-05-07T06:16:48;15.80;99.90
7174;DHT22;3628;48.654;8.932;2023-05-07T06:19:13;16.00;99.90
7174;DHT22;3628;48.654;8.932;2023-05-07T06:21:39;16.20;99.90
7174;DHT22;3628;48.654;8.932;2023-05-07T06:24:06;16.40;99.90
7174;DHT22;3628;48.654;8.932;2023-05-07T06:26:31;16.60;99.90
7174;DHT22;3628;48.654;8.932;2023-05-07T06:28:57;16.80;99.90
7174;DHT22;3628;48.654;8.932;2023-05-07T06:31:22;17.00;99.90
7174;DHT22;3628;48.654;8.932;2023-05-07T06:33:48;17.20;99.90
7174;DHT22;3628;48.654;8.932;2023-05-07T06:36:14;17.30;99.90
7174;DHT22;3628;48.654;8.932;2023-05-07T06:38:39;17.40;99.90
7174;DHT22;3628;48.654;8.932;2023-05-07T06:41:08;17.50;99.90
7174;DHT22;3628;48.654;8.932;2023-05-07T06:43:33;17.70;99.90
7174;DHT22;3628;48.654;8.932;2023-05-07T06:45:59;17.90;99.90
7174;DHT22;3628;48.654;8.932;2023-05-07T06:48:25;18.00;99.90
7174;DHT22;3628;48.654;8.932;2023-05-07T06:50:50;18.20;99.90
7174;DHT22;3628;48.654;8.932;2023-05-07T06:53:16;18.40;99.90
7174;DHT22;3628;48.654;8.932;2023-05-07T06:55:41;18.70;99.90
7174;DHT22;3628;48.654;8.932;2023-05-07T06:58:07;18.90;99.90
7174;DHT22;3628;48.654;8.932;2023-05-07T07:00:33;19.10;99.90
7174;DHT22;3628;48.654;8.932;2023-05-07T07:02:58;19.40;99.90
7174;DHT22;3628;48.654;8.932;2023-05-07T07:05:25;19.70;99.90
7174;DHT22;3628;48.654;8.932;2023-05-07T07:07:51;19.90;99.90
7174;DHT22;3628;48.654;8.932;2023-05-07T07:10:20;20.10;99.90
7174;DHT22;3628;48.654;8.932;2023-05-07T07:12:46;20.30;99.90
7174;DHT22;3628;48.654;8.932;2023-05-07T07:15:11;20.50;99.90
7174;DHT22;3628;48.654;8.932;2023-05-07T07:17:37;20.70;99.90
7174;DHT22;3628;48.654;8.932;2023-05-07T07:20:03;21.00;99.90
7174;DHT22;3628;48.654;8.932;2023-05-07T07:22:28;21.20;99.90
7174;DHT22;3628;48.654;8.932;2023-05-07T07:24:54;21.40;99.90
7174;DHT22;3628;48.654;8.932;2023-05-07T07:27:20;21.60;99.90
7174;DHT22;3628;48.654;8.932;2023-05-07T07:29:45;21.70;99.90
7174;DHT22;3628;48.654;8.932;2023-05-07T07:32:11;21.90;99.90
7174;DHT22;3628;48.654;8.932;2023-05-07T07:34:37;22.00;99.90
7174;DHT22;3628;48.654;8.932;2023-05-07T07:37:02;22.00;99.90
7174;DHT22;3628;48.654;8.932;2023-05-07T07:39:34;21.80;99.90
7174;DHT22;3628;48.654;8.932;2023-05-07T07:42:00;21.90;99.90
7174;DHT22;3628;48.654;8.932;2023-05-07T07:46:52;21.90;99.90
7174;DHT22;3628;48.654;8.932;2023-05-07T07:49:17;22.00;99.90
7174;DHT22;3628;48.654;8.932;2023-05-07T07:51:43;21.90;99.90
7174;DHT22;3628;48.654;8.932;2023-05-07T07:54:08;21.90;99.90
7174;DHT22;3628;48.654;8.932;2023-05-07T07:56:34;22.10;99.90
7174;DHT22;3628;48.654;8.932;2023-05-07T07:59:00;22.30;99.90
7174;DHT22;3628;48.654;8.932;2023-05-07T08:01:26;22.60;99.90
7174;DHT22;3628;48.654;8.932;2023-05-07T08:03:52;22.80;99.90
7174;DHT22;3628;48.654;8.932;2023-05-07T08:06:18;23.00;99.90
7174;DHT22;3628;48.654;8.932;2023-05-07T08:08:43;23.40;99.90
7174;DHT22;3628;48.654;8.932;2023-05-07T08:11:09;23.60;99.90
7174;DHT22;3628;48.654;8.932;2023-05-07T08:13:36;23.60;99.90
7174;DHT22;3628;48.654;8.932;2023-05-07T08:16:01;23.80;99.90
7174;DHT22;3628;48.654;8.932;2023-05-07T08:18:27;23.70;99.90
7174;DHT22;3628;48.654;8.932;2023-05-07T08:20:54;23.70;99.90
7174;DHT22;3628;48.654;8.932;2023-05-07T08:23:20;23.70;99.90
7174;DHT22;3628;48.654;8.932;2023-05-07T08:25:45;23.70;99.90
7174;DHT22;3628;48.654;8.932;2023-05-07T08:28:11;23.80;99.90
7174;DHT22;3628;48.654;8.932;2023-05-07T08:30:37;23.90;99.90
7174;DHT22;3628;48.654;8.932;2023-05-07T08:33:02;24.00;99.90
7174;DHT22;3628;48.654;8.932;2023-05-07T08:35:28;24.30;99.90
7174;DHT22;3628;48.654;8.932;2023-05-07T08:37:53;24.60;99.40
7174;DHT22;3628;48.654;8.932;2023-05-07T08:40:20;24.60;98.00
7174;DHT22;3628;48.654;8.932;2023-05-07T08:42:49;24.60;97.20
7174;DHT22;3628;48.654;8.932;2023-05-07T08:45:19;24.60;96.40
7174;DHT22;3628;48.654;8.932;2023-05-07T08:47:47;24.50;96.50
7174;DHT22;3628;48.654;8.932;2023-05-07T08:50:15;24.30;96.70
7174;DHT22;3628;48.654;8.932;2023-05-07T08:52:41;24.40;96.30
7174;DHT22;3628;48.654;8.932;2023-05-07T08:55:08;24.10;95.70
7174;DHT22;3628;48.654;8.932;2023-05-07T08:57:34;24.00;95.80
7174;DHT22;3628;48.654;8.932;2023-05-07T09:00:00;24.20;96.60
7174;DHT22;3628;48.654;8.932;2023-05-07T09:02:26;24.30;95.80
7174;DHT22;3628;48.654;8.932;2023-05-07T09:04:52;24.60;96.10
7174;DHT22;3628;48.654;8.932;2023-05-07T09:07:20;24.80;95.80
7174;DHT22;3628;48.654;8.932;2023-05-07T09:09:46;25.10;95.20
7174;DHT22;3628;48.654;8.932;2023-05-07T09:12:11;25.50;94.80
7174;DHT22;3628;48.654;8.932;2023-05-07T09:14:38;25.70;94.30
7174;DHT22;3628;48.654;8.932;2023-05-07T09:17:03;26.10;93.60
7174;DHT22;3628;48.654;8.932;2023-05-07T09:19:30;26.50;92.70
7174;DHT22;3628;48.654;8.932;2023-05-07T09:22:02;26.70;92.10
7174;DHT22;3628;48.654;8.932;2023-05-07T09:24:28;27.00;91.10
7174;DHT22;3628;48.654;8.932;2023-05-07T09:26:58;27.20;90.00
7174;DHT22;3628;48.654;8.932;2023-05-07T09:29:23;27.30;86.70
7174;DHT22;3628;48.654;8.932;2023-05-07T09:31:49;27.40;85.40
7174;DHT22;3628;48.654;8.932;2023-05-07T09:34:14;27.50;85.20
7174;DHT22;3628;48.654;8.932;2023-05-07T09:36:40;27.50;83.80
7174;DHT22;3628;48.654;8.932;2023-05-07T09:39:05;27.60;84.10
7174;DHT22;3628;48.654;8.932;2023-05-07T09:41:31;27.80;83.10
7174;DHT22;3628;48.654;8.932;2023-05-07T09:43:58;27.80;82.50
7174;DHT22;3628;48.654;8.932;2023-05-07T09:46:31;27.80;81.00
7174;DHT22;3628;48.654;8.932;2023-05-07T09:48:58;27.90;80.10
7174;DHT22;3628;48.654;8.932;2023-05-07T09:51:29;27.70;78.70
7174;DHT22;3628;48.654;8.932;2023-05-07T09:53:56;27.20;78.20
7174;DHT22;3628;48.654;8.932;2023-05-07T09:56:22;27.00;79.30
7174;DHT22;3628;48.654;8.932;2023-05-07T09:58:49;26.50;79.70
7174;DHT22;3628;48.654;8.932;2023-05-07T10:01:17;26.30;81.20
7174;DHT22;3628;48.654;8.932;2023-05-07T10:03:44;26.30;82.90
7174;DHT22;3628;48.654;8.932;2023-05-07T10:06:12;26.20;83.50
7174;DHT22;3628;48.654;8.932;2023-05-07T10:08:38;26.20;82.90
7174;DHT22;3628;48.654;8.932;2023-05-07T10:11:05;26.10;83.50
7174;DHT22;3628;48.654;8.932;2023-05-07T10:13:33;26.10;84.10
7174;DHT22;3628;48.654;8.932;2023-05-07T10:16:04;26.00;83.20
7174;DHT22;3628;48.654;8.932;2023-05-07T10:18:31;26.10;83.20
7174;DHT22;3628;48.654;8.932;2023-05-07T10:21:19;26.10;82.80
7174;DHT22;3628;48.654;8.932;2023-05-07T10:23:45;26.40;83.60
7174;DHT22;3628;48.654;8.932;2023-05-07T10:26:15;27.00;83.60
7174;DHT22;3628;48.654;8.932;2023-05-07T10:28:44;27.30;81.10
7174;DHT22;3628;48.654;8.932;2023-05-07T10:31:25;27.40;79.00
7174;DHT22;3628;48.654;8.932;2023-05-07T10:33:55;27.10;77.80
7174;DHT22;3628;48.654;8.932;2023-05-07T10:36:22;26.90;79.20
7174;DHT22;3628;48.654;8.932;2023-05-07T10:38:48;27.00;79.70
7174;DHT22;3628;48.654;8.932;2023-05-07T10:41:14;26.50;79.70
7174;DHT22;3628;48.654;8.932;2023-05-07T10:43:43;26.70;79.90
7174;DHT22;3628;48.654;8.932;2023-05-07T10:49:11;26.90;78.20
7174;DHT22;3628;48.654;8.932;2023-05-07T10:51:37;27.00;78.40
7174;DHT22;3628;48.654;8.932;2023-05-07T10:56:38;27.20;77.60
7174;DHT22;3628;48.654;8.932;2023-05-07T11:02:04;27.40;76.40
7174;DHT22;3628;48.654;8.932;2023-05-07T11:04:32;27.80;77.00
7174;DHT22;3628;48.654;8.932;2023-05-07T11:15:10;28.80;71.60
7174;DHT22;3628;48.654;8.932;2023-05-07T11:17:56;28.80;71.80
7174;DHT22;3628;48.654;8.932;2023-05-07T11:20:48;28.70;70.60
7174;DHT22;3628;48.654;8.932;2023-05-07T11:26:07;28.40;69.00
7174;DHT22;3628;48.654;8.932;2023-05-07T11:28:43;28.10;69.70
7174;DHT22;3628;48.654;8.932;2023-05-07T11:31:09;27.80;71.10
7174;DHT22;3628;48.654;8.932;2023-05-07T11:33:37;27.50;71.40
7174;DHT22;3628;48.654;8.932;2023-05-07T11:36:04;27.40;71.90
7174;DHT22;3628;48.654;8.932;2023-05-07T11:38:30;27.30;72.30
7174;DHT22;3628;48.654;8.932;2023-05-07T11:40:59;27.10;72.70
7174;DHT22;3628;48.654;8.932;2023-05-07T11:43:26;26.90;73.70
7174;DHT22;3628;48.654;8.932;2023-05-07T11:45:52;26.60;74.30
7174;DHT22;3628;48.654;8.932;2023-05-07T11:48:18;26.20;75.00
7174;DHT22;3628;48.654;8.932;2023-05-07T11:51:00;25.90;74.10
7174;DHT22;3628;48.654;8.932;2023-05-07T11:53:26;25.40;77.60
7174;DHT22;3628;48.654;8.932;2023-05-07T11:55:53;24.80;81.70
7174;DHT22;3628;48.654;8.932;2023-05-07T11:58:23;23.50;90.00
7174;DHT22;3628;48.654;8.932;2023-05-07T12:00:50;22.60;92.50
7174;DHT22;3628;48.654;8.932;2023-05-07T12:03:16;21.70;94.20
7174;DHT22;3628;48.654;8.932;2023-05-07T12:05:41;21.10;96.90
7174;DHT22;3628;48.654;8.932;2023-05-07T12:08:07;20.60;98.50
7174;DHT22;3628;48.654;8.932;2023-05-07T12:10:33;20.40;99.90
7174;DHT22;3628;48.654;8.932;2023-05-07T12:12:58;20.10;99.90
7174;DHT22;3628;48.654;8.932;2023-05-07T12:15:24;19.90;99.90
7174;DHT22;3628;48.654;8.932;2023-05-07T12:17:50;19.50;99.90
7174;DHT22;3628;48.654;8.932;2023-05-07T12:20:17;19.40;99.90
7174;DHT22;3628;48.654;8.932;2023-05-07T12:22:44;19.00;99.90
7174;DHT22;3628;48.654;8.932;2023-05-07T12:25:09;19.00;99.90
7174;DHT22;3628;48.654;8.932;2023-05-07T12:27:37;18.80;99.90
7174;DHT22;3628;48.654;8.932;2023-05-07T12:30:04;18.70;99.90
7174;DHT22;3628;48.654;8.932;2023-05-07T12:32:30;18.60;99.90
7174;DHT22;3628;48.654;8.932;2023-05-07T12:34:55;18.40;99.90
7174;DHT22;3628;48.654;8.932;2023-05-07T12:37:24;18.20;99.90
7174;DHT22;3628;48.654;8.932;2023-05-07T12:40:05;18.20;99.90
7174;DHT22;3628;48.654;8.932;2023-05-07T12:42:35;18.40;99.90
7174;DHT22;3628;48.654;8.932;2023-05-07T12:45:10;18.50;99.90
7174;DHT22;3628;48.654;8.932;2023-05-07T12:47:36;18.50;99.90
7174;DHT22;3628;48.654;8.932;2023-05-07T12:50:05;18.50;99.90
7174;DHT22;3628;48.654;8.932;2023-05-07T12:52:31;18.40;99.90
7174;DHT22;3628;48.654;8.932;2023-05-07T12:54:57;18.40;99.90
7174;DHT22;3628;48.654;8.932;2023-05-07T12:57:29;18.40;99.90
7174;DHT22;3628;48.654;8.932;2023-05-07T12:59:57;18.40;99.90
7174;DHT22;3628;48.654;8.932;2023-05-07T13:02:37;18.30;99.90
7174;DHT22;3628;48.654;8.932;2023-05-07T13:05:03;18.30;99.90
7174;DHT22;3628;48.654;8.932;2023-05-07T13:07:29;18.10;99.90
7174;DHT22;3628;48.654;8.932;2023-05-07T13:09:55;17.70;99.90
7174;DHT22;3628;48.654;8.932;2023-05-07T13:12:20;17.50;99.90
7174;DHT22;3628;48.654;8.932;2023-05-07T13:14:46;17.40;99.90
7174;DHT22;3628;48.654;8.932;2023-05-07T13:17:11;17.20;99.90
7174;DHT22;3628;48.654;8.932;2023-05-07T13:19:37;17.20;99.90
7174;DHT22;3628;48.654;8.932;2023-05-07T13:22:03;17.30;99.90
7174;DHT22;3628;48.654;8.932;2023-05-07T13:24:29;17.30;99.90
7174;DHT22;3628;48.654;8.932;2023-05-07T13:26:54;17.30;99.90
7174;DHT22;3628;48.654;8.932;2023-05-07T13:29:20;17.20;99.90
7174;DHT22;3628;48.654;8.932;2023-05-07T13:31:50;17.20;99.90
7174;DHT22;3628;48.654;8.932;2023-05-07T13:34:16;17.10;99.90
7174;DHT22;3628;48.654;8.932;2023-05-07T13:36:41;17.10;99.90
7174;DHT22;3628;48.654;8.932;2023-05-07T13:39:07;16.90;99.90
7174;DHT22;3628;48.654;8.932;2023-05-07T13:41:32;16.60;99.90
7174;DHT22;3628;48.654;8.932;2023-05-07T13:43:58;16.40;99.90
7174;DHT22;3628;48.654;8.932;2023-05-07T13:46:24;16.30;99.90
7174;DHT22;3628;48.654;8.932;2023-05-07T13:48:49;16.30;99.90
7174;DHT22;3628;48.654;8.932;2023-05-07T13:51:16;16.30;99.90
7174;DHT22;3628;48.654;8.932;2023-05-07T13:53:42;16.20;99.90
7174;DHT22;3628;48.654;8.932;2023-05-07T13:56:07;16.10;99.90
7174;DHT22;3628;48.654;8.932;2023-05-07T13:58:33;16.10;99.90
7174;DHT22;3628;48.654;8.932;2023-05-07T14:00:59;16.10;99.90
7174;DHT22;3628;48.654;8.932;2023-05-07T14:03:24;16.20;99.90
7174;DHT22;3628;48.654;8.932;2023-05-07T14:05:50;16.30;99.90
7174;DHT22;3628;48.654;8.932;2023-05-07T14:08:15;16.30;99.90
7174;DHT22;3628;48.654;8.932;2023-05-07T14:10:43;16.40;99.90
7174;DHT22;3628;48.654;8.932;2023-05-07T14:13:09;16.50;99.90
7174;DHT22;3628;48.654;8.932;2023-05-07T14:15:35;16.60;99.90
7174;DHT22;3628;48.654;8.932;2023-05-07T14:18:02;16.60;99.90
7174;DHT22;3628;48.654;8.932;2023-05-07T14:20:27;16.60;99.90
7174;DHT22;3628;48.654;8.932;2023-05-07T14:22:53;16.70;99.90
7174;DHT22;3628;48.654;8.932;2023-05-07T14:25:18;16.70;99.90
7174;DHT22;3628;48.654;8.932;2023-05-07T14:27:44;16.70;99.90
7174;DHT22;3628;48.654;8.932;2023-05-07T14:30:10;16.70;99.90
7174;DHT22;3628;48.654;8.932;2023-05-07T14:32:35;16.70;99.90
7174;DHT22;3628;48.654;8.932;2023-05-07T14:35:01;16.70;99.90
7174;DHT22;3628;48.654;8.932;2023-05-07T14:37:27;16.60;99.90
7174;DHT22;3628;48.654;8.932;2023-05-07T14:39:53;16.60;99.90
7174;DHT22;3628;48.654;8.932;2023-05-07T14:42:18;16.60;99.90
7174;DHT22;3628;48.654;8.932;2023-05-07T14:44:44;16.60;99.90
7174;DHT22;3628;48.654;8.932;2023-05-07T14:47:10;16.50;99.90
7174;DHT22;3628;48.654;8.932;2023-05-07T14:49:36;16.30;99.90
7174;DHT22;3628;48.654;8.932;2023-05-07T14:52:02;16.30;99.90
7174;DHT22;3628;48.654;8.932;2023-05-07T14:54:27;16.20;99.90
7174;DHT22;3628;48.654;8.932;2023-05-07T14:56:53;16.10;99.90
7174;DHT22;3628;48.654;8.932;2023-05-07T14:59:19;16.00;99.90
7174;DHT22;3628;48.654;8.932;2023-05-07T15:01:47;16.00;99.90
7174;DHT22;3628;48.654;8.932;2023-05-07T15:04:13;16.20;99.90
7174;DHT22;3628;48.654;8.932;2023-05-07T15:06:38;16.40;99.90
7174;DHT22;3628;48.654;8.932;2023-05-07T15:09:04;16.60;99.90
7174;DHT22;3628;48.654;8.932;2023-05-07T15:11:30;16.80;99.90
7174;DHT22;3628;48.654;8.932;2023-05-07T15:13:56;16.90;99.90
7174;DHT22;3628;48.654;8.932;2023-05-07T15:16:21;17.00;99.90
7174;DHT22;3628;48.654;8.932;2023-05-07T15:18:48;17.10;99.90
7174;DHT22;3628;48.654;8.932;2023-05-07T15:21:13;17.10;99.90
7174;DHT22;3628;48.654;8.932;2023-05-07T15:23:39;17.20;99.90
7174;DHT22;3628;48.654;8.932;2023-05-07T15:26:06;17.30;99.90
7174;DHT22;3628;48.654;8.932;2023-05-07T15:28:32;17.50;99.90
7174;DHT22;3628;48.654;8.932;2023-05-07T15:30:58;17.60;99.90
7174;DHT22;3628;48.654;8.932;2023-05-07T15:33:24;17.70;99.90
7174;DHT22;3628;48.654;8.932;2023-05-07T15:35:49;17.70;99.90
7174;DHT22;3628;48.654;8.932;2023-05-07T15:38:15;17.80;99.90
7174;DHT22;3628;48.654;8.932;2023-05-07T15:40:41;17.90;99.90
7174;DHT22;3628;48.654;8.932;2023-05-07T15:43:08;18.00;99.90
7174;DHT22;3628;48.654;8.932;2023-05-07T15:45:39;18.00;99.90
7174;DHT22;3628;48.654;8.932;2023-05-07T15:48:05;18.00;99.90
7174;DHT22;3628;48.654;8.932;2023-05-07T15:50:31;18.00;99.90
7174;DHT22;3628;48.654;8.932;2023-05-07T15:52:57;18.10;99.90
7174;DHT22;3628;48.654;8.932;2023-05-07T15:55:23;18.20;99.90
7174;DHT22;3628;48.654;8.932;2023-05-07T15:57:48;18.40;99.90
7174;DHT22;3628;48.654;8.932;2023-05-07T16:00:14;18.40;99.90
7174;DHT22;3628;48.654;8.932;2023-05-07T16:02:41;18.40;99.90
7174;DHT22;3628;48.654;8.932;2023-05-07T16:05:07;18.50;99.90
7174;DHT22;3628;48.654;8.932;2023-05-07T16:07:35;18.50;99.90
7174;DHT22;3628;48.654;8.932;2023-05-07T16:10:01;18.50;99.90
7174;DHT22;3628;48.654;8.932;2023-05-07T16:12:26;18.60;99.90
7174;DHT22;3628;48.654;8.932;2023-05-07T16:14:52;18.60;99.90
7174;DHT22;3628;48.654;8.932;2023-05-07T16:17:17;18.60;99.90
7174;DHT22;3628;48.654;8.932;2023-05-07T16:19:43;18.70;99.90